createdAt,value
2023-09-06T00:00:57.622Z,0.00
2023-09-06T00:01:57.663Z,0.00
2023-09-06T00:02:57.600Z,0.00
2023-09-06T00:03:57.820Z,0.00
2023-09-06T00:04:57.703Z,0.00
2023-09-06T00:05:57.550Z,0.00
2023-09-06T00:06:57.649Z,0.00
2023-09-06T00:07:57.543Z,0.00
2023-09-06T00:08:57.550Z,0.00
2023-09-06T00:09:57.588Z,0.00
2023-09-06T00:10:57.508Z,0.00
2023-09-06T00:11:57.501Z,0.00
2023-09-06T00:12:57.532Z,0.00
2023-09-06T00:13:57.508Z,0.00
2023-09-06T00:14:57.478Z,0.00
2023-09-06T00:15:57.533Z,0.00
2023-09-06T00:16:57.577Z,0.00
2023-09-06T00:17:57.517Z,0.00
2023-09-06T00:18:57.501Z,0.00
2023-09-06T00:19:57.432Z,0.00
2023-09-06T00:20:57.441Z,0.00
2023-09-06T00:21:57.442Z,0.00
2023-09-06T00:22:57.441Z,0.00
2023-09-06T00:23:57.402Z,0.00
2023-09-06T00:24:57.434Z,0.00
2023-09-06T00:25:57.397Z,0.00
2023-09-06T00:26:57.379Z,0.00
2023-09-06T00:27:57.453Z,0.00
2023-09-06T00:28:57.370Z,0.00
2023-09-06T00:29:57.356Z,0.00
2023-09-06T00:30:57.415Z,0.00
2023-09-06T00:31:57.389Z,0.00
2023-09-06T00:32:57.383Z,0.00
2023-09-06T00:33:57.362Z,0.00
2023-09-06T00:34:57.309Z,0.00
2023-09-06T00:35:57.322Z,0.00
2023-09-06T00:36:57.320Z,0.00
2023-09-06T00:37:57.320Z,0.00
2023-09-06T00:38:57.278Z,0.00
2023-09-06T00:39:57.338Z,0.00
2023-09-06T00:40:57.275Z,0.00
2023-09-06T00:41:57.262Z,0.00
2023-09-06T00:42:57.285Z,0.00
2023-09-06T00:43:57.274Z,0.00
2023-09-06T00:44:57.240Z,0.00
2023-09-06T00:45:57.250Z,0.00
2023-09-06T00:46:57.336Z,0.00
2023-09-06T00:47:57.248Z,0.00
2023-09-06T00:48:57.224Z,0.00
2023-09-06T00:49:57.195Z,0.00
2023-09-06T00:50:57.185Z,0.00
2023-09-06T00:51:57.210Z,0.00
2023-09-06T00:52:57.201Z,0.00
2023-09-06T00:53:57.162Z,0.00
2023-09-06T00:54:57.220Z,0.00
2023-09-06T00:55:57.148Z,0.00
2023-09-06T00:56:57.170Z,0.00
2023-09-06T00:57:57.228Z,0.00
2023-09-06T00:58:57.128Z,0.00
2023-09-06T00:59:57.113Z,0.00
2023-09-06T01:00:57.188Z,0.00
2023-09-06T01:01:57.241Z,0.00
2023-09-06T01:02:57.174Z,0.00
2023-09-06T01:03:57.155Z,0.00
2023-09-06T01:04:57.080Z,0.00
2023-09-06T01:05:57.067Z,0.00
2023-09-06T01:06:57.138Z,0.00
2023-09-06T01:07:57.054Z,0.00
2023-09-06T01:08:57.195Z,0.00
2023-09-06T01:09:57.071Z,0.00
2023-09-06T01:10:57.058Z,0.00
2023-09-06T01:11:57.048Z,0.00
2023-09-06T01:12:57.063Z,0.00
2023-09-06T01:13:57.004Z,0.00
2023-09-06T01:14:57.031Z,0.00
2023-09-06T01:15:57.098Z,0.00
2023-09-06T01:16:57.194Z,0.00
2023-09-06T01:17:57.013Z,0.00
2023-09-06T01:18:57.000Z,0.00
2023-09-06T01:19:56.968Z,0.00
2023-09-06T01:20:56.980Z,0.00
2023-09-06T01:21:57.008Z,0.00
2023-09-06T01:22:56.953Z,0.00
2023-09-06T01:23:56.925Z,0.00
2023-09-06T01:24:56.974Z,0.00
2023-09-06T01:25:56.937Z,0.00
2023-09-06T01:26:56.924Z,0.00
2023-09-06T01:27:56.966Z,0.00
2023-09-06T01:28:56.896Z,0.00
2023-09-06T01:29:56.900Z,0.00
2023-09-06T01:30:56.973Z,0.00
2023-09-06T01:31:57.001Z,0.00
2023-09-06T01:32:56.858Z,0.00
2023-09-06T01:33:56.873Z,0.00
2023-09-06T01:34:56.867Z,0.00
2023-09-06T01:35:56.833Z,0.00
2023-09-06T01:36:56.876Z,0.00
2023-09-06T01:37:56.818Z,0.00
2023-09-06T01:38:56.798Z,0.00
2023-09-06T01:39:57.858Z,0.00
2023-09-06T01:40:56.881Z,0.00
2023-09-06T01:41:56.795Z,0.00
2023-09-06T01:42:56.778Z,0.00
2023-09-06T01:43:56.796Z,0.00
2023-09-06T01:44:56.784Z,0.00
2023-09-06T01:45:56.797Z,0.00
2023-09-06T01:46:56.811Z,0.00
2023-09-06T01:47:56.795Z,0.00
2023-09-06T01:48:56.795Z,0.00
2023-09-06T01:49:56.725Z,0.00
2023-09-06T01:50:56.717Z,0.00
2023-09-06T01:51:56.745Z,0.00
2023-09-06T01:52:56.699Z,0.00
2023-09-06T01:53:56.717Z,0.00
2023-09-06T01:54:56.759Z,0.00
2023-09-06T01:55:56.678Z,0.00
2023-09-06T01:56:56.671Z,0.00
2023-09-06T01:57:56.731Z,0.00
2023-09-06T01:58:56.688Z,0.00
2023-09-06T01:59:56.661Z,0.00
2023-09-06T02:00:57.670Z,0.00
2023-09-06T02:01:56.670Z,0.00
2023-09-06T02:02:56.784Z,0.00
2023-09-06T02:03:56.843Z,0.00
2023-09-06T02:04:56.613Z,0.00
2023-09-06T02:05:56.600Z,0.00
2023-09-06T02:06:56.639Z,0.00
2023-09-06T02:07:56.616Z,0.00
2023-09-06T02:08:56.581Z,0.00
2023-09-06T02:09:56.604Z,0.00
2023-09-06T02:10:56.569Z,0.00
2023-09-06T02:11:56.583Z,0.00
2023-09-06T02:12:56.611Z,0.00
2023-09-06T02:13:56.546Z,0.00
2023-09-06T02:14:56.538Z,0.00
2023-09-06T02:15:56.588Z,0.00
2023-09-06T02:16:56.584Z,0.00
2023-09-06T02:17:56.562Z,0.00
2023-09-06T02:18:56.531Z,0.00
2023-09-06T02:19:56.503Z,0.00
2023-09-06T02:20:56.487Z,0.00
2023-09-06T02:21:56.564Z,0.00
2023-09-06T02:22:56.477Z,0.00
2023-09-06T02:23:56.470Z,0.00
2023-09-06T02:24:56.543Z,0.00
2023-09-06T02:25:56.458Z,0.00
2023-09-06T02:26:56.476Z,0.00
2023-09-06T02:27:56.468Z,0.00
2023-09-06T02:28:56.441Z,0.00
2023-09-06T02:29:56.436Z,0.00
2023-09-06T02:30:56.445Z,0.00
2023-09-06T02:31:56.547Z,0.00
2023-09-06T02:32:57.033Z,0.00
2023-09-06T02:33:56.414Z,0.00
2023-09-06T02:34:56.392Z,0.00
2023-09-06T02:35:56.406Z,0.00
2023-09-06T02:36:56.422Z,0.00
2023-09-06T02:37:56.365Z,0.00
2023-09-06T02:38:56.356Z,0.00
2023-09-06T02:39:56.352Z,0.00
2023-09-06T02:40:56.364Z,0.00
2023-09-06T02:41:56.333Z,0.00
2023-09-06T02:42:56.343Z,0.00
2023-09-06T02:43:56.320Z,0.00
2023-09-06T02:44:56.333Z,0.00
2023-09-06T02:45:56.364Z,0.00
2023-09-06T02:46:56.320Z,0.00
2023-09-06T02:47:56.302Z,0.00
2023-09-06T02:48:56.277Z,0.00
2023-09-06T02:49:56.297Z,0.00
2023-09-06T02:50:56.321Z,0.00
2023-09-06T02:51:56.256Z,0.00
2023-09-06T02:52:56.248Z,0.00
2023-09-06T02:53:56.238Z,0.00
2023-09-06T02:54:56.305Z,0.00
2023-09-06T02:55:56.233Z,0.00
2023-09-06T02:56:56.216Z,0.00
2023-09-06T02:57:56.226Z,0.00
2023-09-06T02:58:56.226Z,0.00
2023-09-06T02:59:56.223Z,0.00
2023-09-06T03:00:56.315Z,0.00
2023-09-06T03:01:56.198Z,0.00
2023-09-06T03:02:57.249Z,0.00
2023-09-06T03:03:56.245Z,0.00
2023-09-06T03:04:56.160Z,0.00
2023-09-06T03:05:56.144Z,0.00
2023-09-06T03:06:56.172Z,0.00
2023-09-06T03:07:56.158Z,0.00
2023-09-06T03:08:56.161Z,0.00
2023-09-06T03:09:56.154Z,0.00
2023-09-06T03:10:56.104Z,0.00
2023-09-06T03:11:56.104Z,0.00
2023-09-06T03:12:56.207Z,0.00
2023-09-06T03:13:56.106Z,0.00
2023-09-06T03:14:56.072Z,0.00
2023-09-06T03:15:56.100Z,0.00
2023-09-06T03:16:56.128Z,0.00
2023-09-06T03:17:56.109Z,0.00
2023-09-06T03:18:56.045Z,0.00
2023-09-06T03:19:56.032Z,0.00
2023-09-06T03:20:56.027Z,0.00
2023-09-06T03:21:56.019Z,0.00
2023-09-06T03:22:56.041Z,0.00
2023-09-06T03:23:56.001Z,0.00
2023-09-06T03:24:55.995Z,0.00
2023-09-06T03:25:56.515Z,0.00
2023-09-06T03:26:55.979Z,0.00
2023-09-06T03:27:55.999Z,0.00
2023-09-06T03:28:55.968Z,0.00
2023-09-06T03:29:55.955Z,0.00
2023-09-06T03:30:55.967Z,0.00
2023-09-06T03:31:56.054Z,0.00
2023-09-06T03:32:56.011Z,0.00
2023-09-06T03:33:55.922Z,0.00
2023-09-06T03:34:55.918Z,0.00
2023-09-06T03:35:55.997Z,0.00
2023-09-06T03:36:55.930Z,0.00
2023-09-06T03:37:56.007Z,0.00
2023-09-06T03:38:55.898Z,0.00
2023-09-06T03:39:55.881Z,0.00
2023-09-06T03:40:55.953Z,0.00
2023-09-06T03:41:55.894Z,0.00
2023-09-06T03:42:55.868Z,0.00
2023-09-06T03:43:55.859Z,0.00
2023-09-06T03:44:55.851Z,0.00
2023-09-06T03:45:55.869Z,0.00
2023-09-06T03:46:55.934Z,0.00
2023-09-06T03:47:56.032Z,0.00
2023-09-06T03:48:55.905Z,0.00
2023-09-06T03:49:55.808Z,0.00
2023-09-06T03:50:55.844Z,0.00
2023-09-06T03:51:55.798Z,0.00
2023-09-06T03:52:55.839Z,0.00
2023-09-06T03:53:55.769Z,0.00
2023-09-06T03:54:55.762Z,0.00
2023-09-06T03:55:55.803Z,0.00
2023-09-06T03:56:55.755Z,0.00
2023-09-06T03:57:55.748Z,0.00
2023-09-06T03:58:55.748Z,0.00
2023-09-06T03:59:55.753Z,0.00
2023-09-06T04:00:55.758Z,0.00
2023-09-06T04:01:55.793Z,0.00
2023-09-06T04:02:55.861Z,0.00
2023-09-06T04:03:55.830Z,0.00
2023-09-06T04:04:55.742Z,4.00
2023-09-06T04:05:55.688Z,4.00
2023-09-06T04:06:55.692Z,0.00
2023-09-06T04:07:55.733Z,4.00
2023-09-06T04:08:55.756Z,4.00
2023-09-06T04:09:55.683Z,4.00
2023-09-06T04:10:55.660Z,4.00
2023-09-06T04:11:55.640Z,4.00
2023-09-06T04:12:55.709Z,8.00
2023-09-06T04:13:55.625Z,8.00
2023-09-06T04:14:55.648Z,8.00
2023-09-06T04:15:55.616Z,12.00
2023-09-06T04:16:55.653Z,12.00
2023-09-06T04:17:55.693Z,12.00
2023-09-06T04:18:55.635Z,16.00
2023-09-06T04:19:56.254Z,24.00
2023-09-06T04:20:56.569Z,28.00
2023-09-06T04:21:55.559Z,32.00
2023-09-06T04:22:55.571Z,36.00
2023-09-06T04:23:55.577Z,44.00
2023-09-06T04:24:55.556Z,48.00
2023-09-06T04:25:56.574Z,48.00
2023-09-06T04:26:55.519Z,52.00
2023-09-06T04:27:55.520Z,56.00
2023-09-06T04:28:55.543Z,64.00
2023-09-06T04:29:55.506Z,72.00
2023-09-06T04:30:55.538Z,84.00
2023-09-06T04:31:55.523Z,88.00
2023-09-06T04:32:55.544Z,104.00
2023-09-06T04:33:55.486Z,112.00
2023-09-06T04:34:55.477Z,128.00
2023-09-06T04:35:55.461Z,144.00
2023-09-06T04:36:55.448Z,168.00
2023-09-06T04:37:55.479Z,192.00
2023-09-06T04:38:55.428Z,212.00
2023-09-06T04:39:55.425Z,236.00
2023-09-06T04:40:55.486Z,260.00
2023-09-06T04:41:55.403Z,276.00
2023-09-06T04:42:55.420Z,284.00
2023-09-06T04:43:55.450Z,288.00
2023-09-06T04:44:55.382Z,292.00
2023-09-06T04:45:55.372Z,304.00
2023-09-06T04:46:55.407Z,316.00
2023-09-06T04:47:55.409Z,336.00
2023-09-06T04:48:55.392Z,360.00
2023-09-06T04:49:55.339Z,384.00
2023-09-06T04:50:55.329Z,412.00
2023-09-06T04:51:55.358Z,444.00
2023-09-06T04:52:55.423Z,472.00
2023-09-06T04:53:55.322Z,488.00
2023-09-06T04:54:55.300Z,504.00
2023-09-06T04:55:55.295Z,532.00
2023-09-06T04:56:55.333Z,560.00
2023-09-06T04:57:55.285Z,596.00
2023-09-06T04:58:55.271Z,628.00
2023-09-06T04:59:55.272Z,664.00
2023-09-06T05:00:55.303Z,684.00
2023-09-06T05:01:55.270Z,712.00
2023-09-06T05:02:55.345Z,724.00
2023-09-06T05:03:55.338Z,736.00
2023-09-06T05:04:55.231Z,760.00
2023-09-06T05:05:55.292Z,792.00
2023-09-06T05:06:55.237Z,828.00
2023-09-06T05:07:55.202Z,864.00
2023-09-06T05:08:55.201Z,900.00
2023-09-06T05:09:55.190Z,920.00
2023-09-06T05:10:55.204Z,944.00
2023-09-06T05:11:55.177Z,984.00
2023-09-06T05:12:55.165Z,1028.00
2023-09-06T05:13:55.194Z,1080.00
2023-09-06T05:14:55.148Z,1132.00
2023-09-06T05:15:55.163Z,1204.00
2023-09-06T05:16:55.186Z,1264.00
2023-09-06T05:17:55.163Z,1340.00
2023-09-06T05:18:55.130Z,1380.00
2023-09-06T05:19:55.131Z,1408.00
2023-09-06T05:20:55.124Z,1444.00
2023-09-06T05:21:55.093Z,1492.00
2023-09-06T05:22:55.112Z,1520.00
2023-09-06T05:23:55.076Z,1552.00
2023-09-06T05:24:55.134Z,1604.00
2023-09-06T05:25:55.066Z,1648.00
2023-09-06T05:26:55.053Z,1676.00
2023-09-06T05:27:55.128Z,1760.00
2023-09-06T05:28:55.039Z,1844.00
2023-09-06T05:29:55.063Z,1896.00
2023-09-06T05:30:55.058Z,1996.00
2023-09-06T05:31:55.064Z,2136.00
2023-09-06T05:32:55.054Z,2264.00
2023-09-06T05:33:55.040Z,2368.00
2023-09-06T05:34:55.020Z,2524.00
2023-09-06T05:35:54.984Z,2716.00
2023-09-06T05:36:54.988Z,2884.00
2023-09-06T05:37:55.022Z,2936.00
2023-09-06T05:38:54.987Z,2964.00
2023-09-06T05:39:54.947Z,3052.00
2023-09-06T05:40:54.961Z,3104.00
2023-09-06T05:41:54.940Z,3112.00
2023-09-06T05:42:54.927Z,3068.00
2023-09-06T05:43:54.961Z,3008.00
2023-09-06T05:44:54.913Z,3156.00
2023-09-06T05:45:54.957Z,3420.00
2023-09-06T05:46:55.085Z,3528.00
2023-09-06T05:47:55.135Z,3532.00
2023-09-06T05:48:54.971Z,3648.00
2023-09-06T05:49:54.992Z,3900.00
2023-09-06T05:50:54.934Z,4108.00
2023-09-06T05:51:54.981Z,4308.00
2023-09-06T05:52:54.967Z,4448.00
2023-09-06T05:53:54.925Z,4428.00
2023-09-06T05:55:54.957Z,5140.00
2023-09-06T05:56:54.825Z,5304.00
2023-09-06T05:57:54.861Z,5508.00
2023-09-06T05:58:54.825Z,5712.00
2023-09-06T05:59:54.811Z,6012.00
2023-09-06T06:00:54.803Z,6508.00
2023-09-06T06:01:54.851Z,6576.00
2023-09-06T06:02:54.880Z,6860.00
2023-09-06T06:03:55.837Z,7212.00
2023-09-06T06:04:54.825Z,7004.00
2023-09-06T06:05:54.765Z,7132.00
2023-09-06T06:06:54.777Z,7372.00
2023-09-06T06:07:54.774Z,7620.00
2023-09-06T06:08:54.786Z,8088.00
2023-09-06T06:09:54.732Z,8544.00
2023-09-06T06:10:54.743Z,9196.00
2023-09-06T06:11:54.742Z,9516.00
2023-09-06T06:12:54.709Z,8984.00
2023-09-06T06:14:08.149Z,8724.00
2023-09-06T06:14:56.693Z,8672.00
2023-09-06T06:15:54.692Z,8868.00
2023-09-06T06:16:54.724Z,9756.00
2023-09-06T06:17:54.698Z,11192.00
2023-09-06T06:18:54.669Z,12240.00
2023-09-06T06:19:54.735Z,12552.00
2023-09-06T06:20:54.677Z,13408.00
2023-09-06T06:21:54.663Z,13316.00
2023-09-06T06:22:54.630Z,11868.00
2023-09-06T06:23:54.628Z,11064.00
2023-09-06T06:24:54.673Z,9952.00
2023-09-06T06:25:54.670Z,10424.00
2023-09-06T06:26:54.601Z,9980.00
2023-09-06T06:27:54.714Z,10952.00
2023-09-06T06:28:54.728Z,10848.00
2023-09-06T06:29:54.638Z,11228.00
2023-09-06T06:30:54.602Z,12160.00
2023-09-06T06:31:54.766Z,13916.00
2023-09-06T06:32:54.624Z,15280.00
2023-09-06T06:33:54.560Z,14132.00
2023-09-06T06:34:54.582Z,15056.00
2023-09-06T06:35:54.594Z,13808.00
2023-09-06T06:36:54.518Z,12940.00
2023-09-06T06:37:54.551Z,13052.00
2023-09-06T06:38:54.508Z,14100.00
2023-09-06T06:39:54.538Z,16192.00
2023-09-06T06:40:54.561Z,18752.00
2023-09-06T06:41:54.490Z,21984.00
2023-09-06T06:42:54.483Z,24864.00
2023-09-06T06:43:54.501Z,26112.00
2023-09-06T06:44:54.483Z,28928.00
2023-09-06T06:45:54.491Z,26368.00
2023-09-06T06:46:54.484Z,25504.00
2023-09-06T06:47:54.483Z,30880.00
2023-09-06T06:48:55.438Z,30848.00
2023-09-06T06:49:54.511Z,24736.00
2023-09-06T06:50:54.503Z,27328.00
2023-09-06T06:51:54.404Z,25472.00
2023-09-06T06:52:54.477Z,22144.00
2023-09-06T06:53:54.419Z,22912.00
2023-09-06T06:54:54.410Z,25120.00
2023-09-06T06:55:54.406Z,25632.00
2023-09-06T06:56:54.386Z,26592.00
2023-09-06T06:57:54.353Z,29920.00
2023-09-06T06:58:54.429Z,26400.00
2023-09-06T06:59:54.352Z,32224.00
2023-09-06T07:00:54.430Z,25376.00
2023-09-06T07:01:54.367Z,24832.00
2023-09-06T07:02:54.366Z,22752.00
2023-09-06T07:03:54.447Z,23264.00
2023-09-06T07:04:56.259Z,22336.00
2023-09-06T07:05:54.293Z,16832.00
2023-09-06T07:06:54.297Z,17184.00
2023-09-06T07:07:54.327Z,18848.00
2023-09-06T07:08:54.279Z,21888.00
2023-09-06T07:09:54.271Z,31616.00
2023-09-06T07:10:54.294Z,36544.00
2023-09-06T07:11:54.254Z,26176.00
2023-09-06T07:12:54.270Z,36800.00
2023-09-06T07:13:54.340Z,40864.00
2023-09-06T07:14:54.241Z,44672.00
2023-09-06T07:15:54.255Z,48416.00
2023-09-06T07:16:54.387Z,43872.00
2023-09-06T07:17:54.322Z,39136.00
2023-09-06T07:18:54.204Z,35456.00
2023-09-06T07:19:54.246Z,25728.00
2023-09-06T07:20:54.193Z,21120.00
2023-09-06T07:21:54.235Z,29632.00
2023-09-06T07:22:54.195Z,48960.00
2023-09-06T07:23:54.162Z,40512.00
2023-09-06T07:24:54.167Z,87808.00
2023-09-06T07:25:54.154Z,76224.00
2023-09-06T07:26:54.159Z,72384.00
2023-09-06T07:27:54.146Z,79136.00
2023-09-06T07:28:54.166Z,54016.00
2023-09-06T07:29:54.122Z,33760.00
2023-09-06T07:30:54.168Z,43616.00
2023-09-06T07:31:54.132Z,32352.00
2023-09-06T07:32:54.132Z,36256.00
2023-09-06T07:33:54.123Z,48736.00
2023-09-06T07:34:54.096Z,47360.00
2023-09-06T07:35:54.109Z,46368.00
2023-09-06T07:36:54.074Z,36864.00
2023-09-06T07:37:54.060Z,38752.00
2023-09-06T07:38:54.048Z,42848.00
2023-09-06T07:39:54.043Z,43808.00
2023-09-06T07:40:54.066Z,34176.00
2023-09-06T07:41:54.024Z,45056.00
2023-09-06T07:42:54.044Z,35264.00
2023-09-06T07:43:54.015Z,46144.00
2023-09-06T07:44:54.034Z,43008.00
2023-09-06T07:45:54.071Z,39936.00
2023-09-06T07:46:54.094Z,41632.00
2023-09-06T07:47:54.059Z,45216.00
2023-09-06T07:48:54.369Z,48768.00
2023-09-06T07:49:53.987Z,49120.00
2023-09-06T07:50:54.008Z,50400.00
2023-09-06T07:51:53.961Z,49504.00
2023-09-06T07:52:53.971Z,47360.00
2023-09-06T07:53:53.939Z,45952.00
2023-09-06T07:54:53.958Z,46144.00
2023-09-06T07:55:53.939Z,45024.00
2023-09-06T07:56:53.911Z,42784.00
2023-09-06T07:57:53.905Z,41440.00
2023-09-06T07:58:53.909Z,42464.00
2023-09-06T07:59:53.917Z,43616.00
2023-09-06T08:01:06.148Z,42016.00
2023-09-06T08:01:55.925Z,39904.00
2023-09-06T08:02:53.922Z,39136.00
2023-09-06T08:03:53.964Z,38656.00
2023-09-06T08:04:54.097Z,37408.00
2023-09-06T08:05:53.920Z,37088.00
2023-09-06T08:06:54.045Z,37280.00
2023-09-06T08:07:53.839Z,37280.00
2023-09-06T08:08:53.926Z,37056.00
2023-09-06T08:09:53.863Z,36096.00
2023-09-06T08:10:53.818Z,35616.00
2023-09-06T08:11:53.830Z,35648.00
2023-09-06T08:12:53.807Z,35616.00
2023-09-06T08:13:53.882Z,35552.00
2023-09-06T08:14:53.864Z,35008.00
2023-09-06T08:15:53.796Z,34816.00
2023-09-06T08:16:53.844Z,34784.00
2023-09-06T08:17:53.904Z,34272.00
2023-09-06T08:18:53.837Z,33600.00
2023-09-06T08:19:53.768Z,33568.00
2023-09-06T08:20:53.831Z,33920.00
2023-09-06T08:21:53.752Z,34144.00
2023-09-06T08:22:53.774Z,34080.00
2023-09-06T08:23:53.759Z,34464.00
2023-09-06T08:24:53.740Z,34592.00
2023-09-06T08:25:53.728Z,34944.00
2023-09-06T08:26:53.733Z,35296.00
2023-09-06T08:27:53.742Z,35808.00
2023-09-06T08:28:53.698Z,36480.00
2023-09-06T08:29:54.799Z,36640.00
2023-09-06T08:30:53.781Z,36160.00
2023-09-06T08:31:53.760Z,36064.00
2023-09-06T08:32:53.754Z,37344.00
2023-09-06T08:33:53.809Z,39072.00
2023-09-06T08:34:53.672Z,41728.00
2023-09-06T08:35:53.666Z,46432.00
2023-09-06T08:36:53.680Z,49952.00
2023-09-06T08:37:53.675Z,51808.00
2023-09-06T08:38:53.646Z,52096.00
2023-09-06T08:39:53.767Z,55488.00
2023-09-06T08:40:53.639Z,62624.00
2023-09-06T08:41:53.688Z,70016.00
2023-09-06T08:42:53.636Z,72640.00
2023-09-06T08:43:53.618Z,66208.00
2023-09-06T08:44:53.615Z,57280.00
2023-09-06T08:45:54.011Z,49088.00
2023-09-06T08:46:53.749Z,41184.00
2023-09-06T08:47:53.694Z,35552.00
2023-09-06T08:48:53.700Z,32000.00
2023-09-06T08:49:53.588Z,29888.00
2023-09-06T08:50:56.173Z,28544.00
2023-09-06T08:51:54.603Z,27424.00
2023-09-06T08:52:53.561Z,26112.00
2023-09-06T08:53:53.569Z,24896.00
2023-09-06T08:54:53.622Z,23584.00
2023-09-06T08:55:53.574Z,22464.00
2023-09-06T08:56:53.569Z,21536.00
2023-09-06T08:57:53.545Z,20736.00
2023-09-06T08:58:53.530Z,20192.00
2023-09-06T08:59:53.523Z,19840.00
2023-09-06T09:00:53.630Z,19520.00
2023-09-06T09:01:53.548Z,19296.00
2023-09-06T09:02:53.667Z,19072.00
2023-09-06T09:03:53.677Z,18880.00
2023-09-06T09:05:00.141Z,18752.00
2023-09-06T09:05:54.517Z,18656.00
2023-09-06T09:06:53.517Z,18624.00
2023-09-06T09:07:53.478Z,18432.00
2023-09-06T09:08:53.470Z,18304.00
2023-09-06T09:09:53.553Z,18176.00
2023-09-06T09:10:53.488Z,18016.00
2023-09-06T09:11:53.456Z,17792.00
2023-09-06T09:12:53.575Z,17568.00
2023-09-06T09:13:53.441Z,17344.00
2023-09-06T09:14:53.461Z,17152.00
2023-09-06T09:15:53.528Z,16960.00
2023-09-06T09:16:53.458Z,16736.00
2023-09-06T09:18:00.953Z,16352.00
2023-09-06T09:18:55.422Z,16088.00
2023-09-06T09:19:53.435Z,15880.00
2023-09-06T09:20:53.408Z,15684.00
2023-09-06T09:21:53.394Z,15480.00
2023-09-06T09:22:53.414Z,15260.00
2023-09-06T09:23:53.407Z,15088.00
2023-09-06T09:24:53.426Z,14920.00
2023-09-06T09:25:53.368Z,14760.00
2023-09-06T09:26:53.371Z,14612.00
2023-09-06T09:27:53.421Z,14456.00
2023-09-06T09:28:53.384Z,14296.00
2023-09-06T09:29:53.338Z,14164.00
2023-09-06T09:30:53.387Z,14028.00
2023-09-06T09:31:53.333Z,13876.00
2023-09-06T09:32:53.366Z,13748.00
2023-09-06T09:33:53.388Z,13608.00
2023-09-06T09:34:53.317Z,13496.00
2023-09-06T09:35:53.323Z,13380.00
2023-09-06T09:36:53.338Z,13244.00
2023-09-06T09:37:53.299Z,13124.00
2023-09-06T09:38:53.309Z,12992.00
2023-09-06T09:39:53.291Z,12864.00
2023-09-06T09:40:53.979Z,12720.00
2023-09-06T09:41:59.565Z,12560.00
2023-09-06T09:42:55.283Z,12416.00
2023-09-06T09:43:53.283Z,12216.00
2023-09-06T09:44:53.253Z,11980.00
2023-09-06T09:45:53.289Z,11700.00
2023-09-06T09:46:53.255Z,11328.00
2023-09-06T09:47:54.298Z,10864.00
2023-09-06T09:48:54.220Z,10392.00
2023-09-06T09:49:53.257Z,9980.00
2023-09-06T09:50:53.213Z,9604.00
2023-09-06T09:51:53.209Z,9292.00
2023-09-06T09:52:53.213Z,9032.00
2023-09-06T09:53:53.194Z,8824.00
2023-09-06T09:54:53.229Z,8652.00
2023-09-06T09:55:53.179Z,8508.00
2023-09-06T09:56:53.201Z,8372.00
2023-09-06T09:57:53.218Z,8252.00
2023-09-06T09:58:53.157Z,8132.00
2023-09-06T09:59:53.228Z,8052.00
2023-09-06T10:00:53.177Z,7964.00
2023-09-06T10:01:53.220Z,7896.00
2023-09-06T10:02:53.277Z,7852.00
2023-09-06T10:03:53.160Z,7832.00
2023-09-06T10:04:53.208Z,7804.00
2023-09-06T10:05:53.117Z,7780.00
2023-09-06T10:06:53.126Z,7764.00
2023-09-06T10:07:53.091Z,7740.00
2023-09-06T10:08:53.093Z,7716.00
2023-09-06T10:09:53.113Z,7688.00
2023-09-06T10:10:53.071Z,7676.00
2023-09-06T10:11:53.093Z,7648.00
2023-09-06T10:12:53.088Z,7620.00
2023-09-06T10:13:53.893Z,7596.00
2023-09-06T10:14:53.050Z,7572.00
2023-09-06T10:15:53.125Z,7552.00
2023-09-06T10:16:53.089Z,7532.00
2023-09-06T10:17:53.101Z,7512.00
2023-09-06T10:18:53.111Z,7488.00
2023-09-06T10:19:54.862Z,7464.00
2023-09-06T10:20:54.044Z,7440.00
2023-09-06T10:21:53.001Z,7420.00
2023-09-06T10:22:53.018Z,7396.00
2023-09-06T10:23:52.989Z,7368.00
2023-09-06T10:24:53.021Z,7352.00
2023-09-06T10:25:52.990Z,7332.00
2023-09-06T10:26:52.957Z,7308.00
2023-09-06T10:27:52.974Z,7296.00
2023-09-06T10:28:52.945Z,7276.00
2023-09-06T10:30:03.529Z,7260.00
2023-09-06T10:30:55.010Z,7232.00
2023-09-06T10:31:52.991Z,7224.00
2023-09-06T10:32:52.957Z,7212.00
2023-09-06T10:33:52.909Z,7196.00
2023-09-06T10:34:52.927Z,7188.00
2023-09-06T10:35:52.944Z,7172.00
2023-09-06T10:36:52.977Z,7152.00
2023-09-06T10:37:52.870Z,7132.00
2023-09-06T10:38:52.953Z,7120.00
2023-09-06T10:39:52.929Z,7120.00
2023-09-06T10:40:52.872Z,7100.00
2023-09-06T10:41:52.847Z,7104.00
2023-09-06T10:42:52.845Z,7088.00
2023-09-06T10:43:52.817Z,7080.00
2023-09-06T10:44:53.868Z,7072.00
2023-09-06T10:45:52.873Z,7056.00
2023-09-06T10:46:52.950Z,7040.00
2023-09-06T10:47:52.857Z,7036.00
2023-09-06T10:48:52.854Z,7020.00
2023-09-06T10:49:52.815Z,7016.00
2023-09-06T10:50:52.774Z,7008.00
2023-09-06T10:51:52.799Z,7004.00
2023-09-06T10:52:52.782Z,7000.00
2023-09-06T10:53:52.782Z,6984.00
2023-09-06T10:54:52.769Z,6968.00
2023-09-06T10:55:52.785Z,6960.00
2023-09-06T10:56:52.745Z,6960.00
2023-09-06T10:57:52.730Z,6944.00
2023-09-06T10:58:52.743Z,6932.00
2023-09-06T10:59:52.733Z,6924.00
2023-09-06T11:00:52.847Z,6916.00
2023-09-06T11:01:56.419Z,6912.00
2023-09-06T11:02:53.848Z,6896.00
2023-09-06T11:03:52.777Z,6888.00
2023-09-06T11:04:52.686Z,6880.00
2023-09-06T11:05:52.679Z,6872.00
2023-09-06T11:06:52.760Z,6872.00
2023-09-06T11:07:52.730Z,6856.00
2023-09-06T11:08:52.659Z,6844.00
2023-09-06T11:09:52.666Z,6840.00
2023-09-06T11:10:52.635Z,6828.00
2023-09-06T11:11:52.625Z,6824.00
2023-09-06T11:12:52.673Z,6816.00
2023-09-06T11:13:52.617Z,6808.00
2023-09-06T11:14:52.601Z,6800.00
2023-09-06T11:15:52.646Z,6792.00
2023-09-06T11:16:52.589Z,6784.00
2023-09-06T11:17:52.685Z,6780.00
2023-09-06T11:18:52.565Z,6776.00
2023-09-06T11:19:52.571Z,6772.00
2023-09-06T11:20:52.610Z,6764.00
2023-09-06T11:21:52.578Z,6756.00
2023-09-06T11:22:52.564Z,6744.00
2023-09-06T11:23:52.531Z,6740.00
2023-09-06T11:24:52.546Z,6724.00
2023-09-06T11:25:52.521Z,6720.00
2023-09-06T11:26:52.532Z,6708.00
2023-09-06T11:27:52.514Z,6708.00
2023-09-06T11:28:52.535Z,6700.00
2023-09-06T11:29:52.492Z,6696.00
2023-09-06T11:30:52.483Z,6652.00
2023-09-06T11:31:52.501Z,6692.00
2023-09-06T11:32:52.532Z,6668.00
2023-09-06T11:33:52.473Z,6660.00
2023-09-06T11:34:52.452Z,6660.00
2023-09-06T11:35:52.459Z,6644.00
2023-09-06T11:36:52.466Z,6636.00
2023-09-06T11:37:52.426Z,6640.00
2023-09-06T11:38:52.419Z,6640.00
2023-09-06T11:39:52.427Z,6640.00
2023-09-06T11:40:52.416Z,6636.00
2023-09-06T11:41:52.410Z,6632.00
2023-09-06T11:43:25.325Z,6636.00
2023-09-06T11:43:52.378Z,6632.00
2023-09-06T11:44:52.365Z,6628.00
2023-09-06T11:45:52.416Z,6624.00
2023-09-06T11:46:52.433Z,6628.00
2023-09-06T11:47:52.389Z,6624.00
2023-09-06T11:48:52.461Z,6620.00
2023-09-06T11:49:52.377Z,6612.00
2023-09-06T11:50:52.353Z,6624.00
2023-09-06T11:51:52.311Z,6628.00
2023-09-06T11:52:58.528Z,6632.00
2023-09-06T11:53:54.297Z,6624.00
2023-09-06T11:54:52.314Z,6640.00
2023-09-06T11:55:52.310Z,6628.00
2023-09-06T11:56:52.411Z,6616.00
2023-09-06T11:57:52.284Z,6604.00
2023-09-06T11:58:52.244Z,6652.00
2023-09-06T11:59:52.267Z,6612.00
2023-09-06T12:00:52.697Z,6612.00
2023-09-06T12:01:52.308Z,6596.00
2023-09-06T12:02:52.287Z,6600.00
2023-09-06T12:03:52.341Z,6592.00
2023-09-06T12:04:52.225Z,6600.00
2023-09-06T12:05:52.263Z,6592.00
2023-09-06T12:06:52.302Z,6572.00
2023-09-06T12:07:52.182Z,6564.00
2023-09-06T12:08:52.225Z,6556.00
2023-09-06T12:09:52.191Z,6552.00
2023-09-06T12:10:52.157Z,6548.00
2023-09-06T12:11:52.180Z,6544.00
2023-09-06T12:12:52.143Z,6536.00
2023-09-06T12:13:52.168Z,6540.00
2023-09-06T12:14:52.183Z,6524.00
2023-09-06T12:15:52.137Z,6516.00
2023-09-06T12:16:52.224Z,6520.00
2023-09-06T12:17:52.171Z,6512.00
2023-09-06T12:18:52.189Z,6516.00
2023-09-06T12:19:52.088Z,6512.00
2023-09-06T12:20:52.115Z,6500.00
2023-09-06T12:21:52.086Z,6496.00
2023-09-06T12:22:52.070Z,6484.00
2023-09-06T12:23:52.107Z,6480.00
2023-09-06T12:24:52.056Z,6492.00
2023-09-06T12:25:52.043Z,6476.00